Time;durP1;ratioP1;P1;durP2;ratioP2;P2;SDS_P1;SDS_P2;PMS_P1;PMS_P2;Temp;Humidity;BMP_temperature;BMP_pressure;BME280_temperature;BME280_humidity;BME280_pressure;Samples;Min_cycle;Max_cycle;Signal;HPM_P1;HPM_P2
2023/01/20 01:08:37;;;;;;;9.98;3.60;;;6.60;77.90;;;;;;6292811;22;20049;-74
2023/01/20 01:11:03;;;;;;;13.32;3.30;;;6.60;77.90;;;;;;6307234;22;20003;-75
2023/01/20 01:13:30;;;;;;;8.43;2.80;;;6.60;78.10;;;;;;6306690;22;20010;-76
2023/01/20 01:15:56;;;;;;;7.25;2.70;;;6.60;78.30;;;;;;6306366;22;20056;-74
2023/01/20 01:18:21;;;;;;;8.98;3.15;;;6.70;78.40;;;;;;6306466;22;20011;-75
2023/01/20 01:21:11;;;;;;;9.77;2.85;;;6.70;78.60;;;;;;6233464;22;20038;-74
2023/01/20 01:23:37;;;;;;;8.43;2.97;;;6.70;78.10;;;;;;6306266;22;20090;-74
2023/01/20 01:26:03;;;;;;;6.50;2.55;;;6.70;78.50;;;;;;6306307;22;20030;-74
2023/01/20 01:28:28;;;;;;;10.05;2.85;;;6.70;78.60;;;;;;6306637;22;20000;-74
2023/01/20 01:30:54;;;;;;;8.25;2.80;;;6.70;78.60;;;;;;6278862;22;20380;-74
2023/01/20 01:33:20;;;;;;;5.90;2.70;;;6.80;78.60;;;;;;6306373;22;20003;-73
2023/01/20 01:35:58;;;;;;;5.68;2.80;;;6.80;78.70;;;;;;6306291;22;20003;-75
2023/01/20 01:38:24;;;;;;;6.43;2.85;;;6.80;78.40;;;;;;6306331;22;20014;-75
2023/01/20 01:40:51;;;;;;;6.97;3.00;;;6.70;78.70;;;;;;6306329;22;20003;-74
2023/01/20 01:43:25;;;;;;;7.80;2.95;;;6.70;79.30;;;;;;6306029;22;20003;-76
2023/01/20 01:45:51;;;;;;;8.43;3.00;;;6.70;79.00;;;;;;6306434;22;20037;-74
2023/01/20 01:48:22;;;;;;;7.05;2.80;;;6.70;79.00;;;;;;6306354;22;19995;-74
2023/01/20 01:50:55;;;;;;;8.70;3.17;;;6.80;79.10;;;;;;6278813;22;20018;-75
2023/01/20 01:53:21;;;;;;;7.22;3.20;;;6.90;78.80;;;;;;6306597;22;20010;-74
2023/01/20 01:55:57;;;;;;;9.15;3.42;;;6.90;79.00;;;;;;6308252;22;20007;-74
2023/01/20 01:58:28;;;;;;;11.88;3.45;;;7.00;79.90;;;;;;6308089;22;20012;-74
2023/01/20 02:00:54;;;;;;;8.65;3.50;;;7.00;79.40;;;;;;6308363;22;20367;-74
2023/01/20 02:03:20;;;;;;;8.65;3.40;;;7.10;79.10;;;;;;6308254;22;20045;-74
2023/01/20 02:05:49;;;;;;;9.57;3.10;;;7.10;79.10;;;;;;6308036;22;20062;-74
2023/01/20 02:08:14;;;;;;;6.82;3.38;;;7.10;79.10;;;;;;6307986;22;20011;-74
2023/01/20 02:10:40;;;;;;;7.30;3.50;;;7.10;79.50;;;;;;6307862;22;20010;-75
2023/01/20 02:13:06;;;;;;;8.80;3.63;;;7.10;79.30;;;;;;6308349;22;20334;-75
2023/01/20 02:15:44;;;;;;;6.03;2.95;;;7.20;79.40;;;;;;6308328;22;20334;-75
2023/01/20 02:18:35;;;;;;;6.82;3.08;;;7.20;79.50;;;;;;6307916;22;20023;-75
2023/01/20 02:21:38;;;;;;;6.38;3.05;;;7.10;79.90;;;;;;6287682;22;20008;-74
2023/01/20 02:24:22;;;;;;;7.90;3.42;;;7.20;80.30;;;;;;6308208;22;20021;-75
2023/01/20 02:27:07;;;;;;;7.88;3.45;;;7.20;80.60;;;;;;6308153;22;20432;-74
2023/01/20 02:30:04;;;;;;;9.32;3.72;;;7.30;80.70;;;;;;6308250;22;20003;-74
2023/01/20 02:32:57;;;;;;;7.53;2.90;;;7.30;80.40;;;;;;6277563;22;20090;-75
2023/01/20 02:35:31;;;;;;;7.15;3.33;;;7.10;79.60;;;;;;6307833;22;19999;-75
2023/01/20 02:38:13;;;;;;;;;;;7.10;79.60;;;;;;6308521;22;20014;-75
2023/01/20 02:41:07;;;;;;;11.10;3.85;;;7.00;80.10;;;;;;6308154;22;20029;-74
2023/01/20 02:43:47;;;;;;;6.97;3.53;;;6.90;81.30;;;;;;6308978;22;20010;-74
2023/01/20 02:46:35;;;;;;;12.32;4.35;;;6.80;80.00;;;;;;6308244;22;19999;-75
2023/01/20 02:49:15;;;;;;;7.65;3.63;;;6.80;81.10;;;;;;6307865;22;20070;-75
2023/01/20 02:51:57;;;;;;;6.75;3.63;;;6.60;81.50;;;;;;6307896;22;20465;-75
2023/01/20 02:54:28;;;;;;;7.05;3.30;;;6.60;81.90;;;;;;6307879;22;20000;-75
2023/01/20 02:56:57;;;;;;;7.13;3.78;;;6.50;80.40;;;;;;6307964;22;19995;-74
2023/01/20 02:59:30;;;;;;;10.02;3.78;;;6.50;80.70;;;;;;6307863;22;20035;-75
2023/01/20 03:02:05;;;;;;;9.68;3.80;;;6.40;80.40;;;;;;6307714;22;20025;-75
2023/01/20 03:04:42;;;;;;;7.97;3.45;;;6.40;80.50;;;;;;6307645;22;19999;-75
2023/01/20 03:07:10;;;;;;;11.38;4.47;;;6.40;82.20;;;;;;6306984;22;19996;-75
2023/01/20 03:09:40;;;;;;;7.70;4.30;;;6.30;80.70;;;;;;6280205;22;20019;-75
2023/01/20 03:12:26;;;;;;;9.75;4.13;;;6.20;80.70;;;;;;6307628;22;19999;-74
2023/01/20 03:14:53;;;;;;;8.98;4.10;;;6.30;81.00;;;;;;6307389;22;20003;-74
2023/01/20 03:17:20;;;;;;;9.40;4.22;;;6.30;80.90;;;;;;6307883;22;20437;-74
2023/01/20 03:19:46;;;;;;;8.95;4.35;;;6.30;80.40;;;;;;6308527;22;20003;-75
2023/01/20 03:22:12;;;;;;;8.55;4.00;;;6.40;80.80;;;;;;6308654;22;20000;-74
2023/01/20 03:24:40;;;;;;;10.82;4.68;;;6.30;80.80;;;;;;6308642;22;20045;-75
2023/01/20 03:27:06;;;;;;;8.55;4.32;;;6.40;80.80;;;;;;6307709;22;20505;-74
2023/01/20 03:29:32;;;;;;;11.23;4.80;;;6.40;80.80;;;;;;6307293;22;20429;-75
2023/01/20 03:32:03;;;;;;;9.55;4.63;;;6.40;81.00;;;;;;6307279;22;19999;-74
2023/01/20 03:34:32;;;;;;;9.50;4.03;;;6.50;80.90;;;;;;6307335;22;20006;-75
2023/01/20 03:36:59;;;;;;;7.95;3.90;;;6.50;80.70;;;;;;6307434;22;20006;-74
2023/01/20 03:39:26;;;;;;;10.10;4.50;;;6.60;81.00;;;;;;6307222;22;20003;-74
2023/01/20 03:42:25;;;;;;;8.05;4.38;;;6.50;80.90;;;;;;6307309;22;19998;-74
2023/01/20 03:45:09;;;;;;;8.30;4.05;;;6.50;82.10;;;;;;6307460;22;20000;-75
2023/01/20 03:47:43;;;;;;;10.45;4.45;;;6.60;81.40;;;;;;6307467;22;20002;-74
2023/01/20 03:50:17;;;;;;;8.68;4.10;;;6.50;81.10;;;;;;6307210;22;20488;-74
2023/01/20 03:53:03;;;;;;;10.95;4.50;;;6.50;81.90;;;;;;6307313;22;20329;-73
2023/01/20 03:55:42;;;;;;;10.60;4.68;;;6.50;81.70;;;;;;6307296;22;20003;-76
2023/01/20 03:58:19;;;;;;;11.05;4.65;;;6.50;81.30;;;;;;6307039;22;20015;-75
2023/01/20 04:00:47;;;;;;;10.20;4.68;;;6.40;81.10;;;;;;6307522;22;20007;-74
2023/01/20 04:03:18;;;;;;;9.13;4.47;;;6.40;81.40;;;;;;6307026;22;20010;-74
2023/01/20 04:05:45;;;;;;;11.32;4.50;;;6.40;81.90;;;;;;6306951;22;20053;-75
2023/01/20 04:08:13;;;;;;;11.98;5.13;;;6.40;81.80;;;;;;6307049;22;20019;-75
2023/01/20 04:10:42;;;;;;;8.30;4.00;;;6.40;81.70;;;;;;6307050;22;19996;-75
2023/01/20 04:13:08;;;;;;;7.70;4.43;;;6.40;81.70;;;;;;6306884;22;20038;-74
2023/01/20 04:15:38;;;;;;;8.25;3.80;;;6.50;81.80;;;;;;6306886;22;19995;-75
2023/01/20 04:18:12;;;;;;;8.85;4.20;;;6.50;81.60;;;;;;6306199;22;20011;-74
2023/01/20 04:20:38;;;;;;;10.10;4.38;;;6.50;81.60;;;;;;6307210;22;20066;-74
2023/01/20 04:23:05;;;;;;;10.27;4.22;;;6.50;81.30;;;;;;6306926;22;20000;-74
2023/01/20 04:25:31;;;;;;;10.15;4.43;;;6.50;81.10;;;;;;6307067;22;20053;-75
2023/01/20 04:27:57;;;;;;;9.52;4.57;;;6.50;81.60;;;;;;6307014;22;20425;-75
2023/01/20 04:30:23;;;;;;;8.95;4.15;;;6.50;81.40;;;;;;6306869;22;20001;-74
2023/01/20 04:32:49;;;;;;;11.35;3.88;;;6.50;82.00;;;;;;6307199;22;20032;-74
2023/01/20 04:35:19;;;;;;;11.50;4.05;;;6.50;81.90;;;;;;6307111;22;20049;-74
2023/01/20 04:37:45;;;;;;;9.02;3.80;;;6.50;81.90;;;;;;6292914;22;20052;-75
2023/01/20 04:40:11;;;;;;;9.57;4.07;;;6.50;81.90;;;;;;6245271;23;20047;-76
2023/01/20 04:42:37;;;;;;;7.60;3.90;;;6.40;81.80;;;;;;6243830;23;20018;-73
2023/01/20 04:45:03;;;;;;;7.95;3.72;;;6.40;82.00;;;;;;6218583;23;20091;-74
2023/01/20 04:47:30;;;;;;;9.68;3.88;;;6.30;82.60;;;;;;6218243;23;20400;-75
2023/01/20 04:49:56;;;;;;;9.75;4.13;;;6.30;82.10;;;;;;6245574;23;20019;-75
2023/01/20 04:52:21;;;;;;;15.48;7.32;;;6.30;82.30;;;;;;6245302;23;20478;-74
2023/01/20 04:54:47;;;;;;;9.50;4.10;;;6.30;82.60;;;;;;6245103;23;20005;-74
2023/01/20 04:57:13;;;;;;;9.60;3.63;;;6.40;82.50;;;;;;6245205;23;20008;-74
2023/01/20 04:59:38;;;;;;;8.32;3.65;;;6.40;82.40;;;;;;6246397;23;20079;-75
2023/01/20 05:02:04;;;;;;;8.98;3.53;;;6.30;82.20;;;;;;6246257;23;20004;-74
2023/01/20 05:04:30;;;;;;;8.63;4.30;;;6.30;82.20;;;;;;6245382;23;20079;-73
2023/01/20 05:06:55;;;;;;;7.20;3.70;;;6.30;82.20;;;;;;6245315;23;20024;-73
2023/01/20 05:09:21;;;;;;;10.40;3.80;;;6.20;82.30;;;;;;6245155;23;20000;-75
2023/01/20 05:11:47;;;;;;;7.43;4.18;;;6.30;82.30;;;;;;6245024;23;20000;-75
2023/01/20 05:14:12;;;;;;;8.95;4.20;;;6.30;82.40;;;;;;6245025;23;20000;-74
2023/01/20 05:16:38;;;;;;;9.60;4.25;;;6.30;82.40;;;;;;6245041;23;19996;-74
2023/01/20 05:19:04;;;;;;;10.57;4.38;;;6.30;82.60;;;;;;6244652;23;20018;-74
2023/01/20 05:21:30;;;;;;;8.57;4.07;;;6.30;82.30;;;;;;6245040;23;20020;-74
2023/01/20 05:23:56;;;;;;;8.25;3.30;;;6.30;82.70;;;;;;6218101;23;20054;-74
2023/01/20 05:26:25;;;;;;;9.95;3.53;;;6.30;82.50;;;;;;6244927;23;20000;-74
2023/01/20 05:28:51;;;;;;;7.97;3.72;;;6.30;82.40;;;;;;6218494;23;20011;-75
2023/01/20 05:31:17;;;;;;;7.50;3.92;;;6.20;82.50;;;;;;6247021;23;20434;-73
2023/01/20 05:33:43;;;;;;;9.15;3.40;;;6.20;82.50;;;;;;6246988;23;20080;-74
2023/01/20 05:36:10;;;;;;;9.75;3.67;;;6.20;82.60;;;;;;6246939;23;20028;-73
2023/01/20 05:38:36;;;;;;;6.82;3.08;;;6.20;82.70;;;;;;6246899;23;20319;-75
2023/01/20 05:41:04;;;;;;;8.45;3.63;;;6.30;82.70;;;;;;6246853;23;20000;-75
2023/01/20 05:43:30;;;;;;;8.98;3.85;;;6.30;82.50;;;;;;6246970;23;20000;-74
2023/01/20 05:45:56;;;;;;;6.78;3.20;;;6.30;82.60;;;;;;6219843;23;20004;-76
2023/01/20 05:48:22;;;;;;;9.10;3.38;;;6.30;82.60;;;;;;6219953;23;20131;-73
2023/01/20 05:50:48;;;;;;;8.35;3.25;;;6.30;82.50;;;;;;6246686;23;20004;-76
2023/01/20 05:53:14;;;;;;;10.23;4.53;;;6.20;82.10;;;;;;6247300;23;20004;-74
2023/01/20 05:55:39;;;;;;;10.00;3.80;;;6.10;82.20;;;;;;6246592;23;20028;-74
2023/01/20 05:58:06;;;;;;;7.88;4.07;;;6.10;82.50;;;;;;6246445;23;20047;-73
2023/01/20 06:00:33;;;;;;;10.55;6.28;;;6.00;82.30;;;;;;6246552;23;20119;-75
2023/01/20 06:02:58;;;;;;;13.05;4.18;;;6.00;82.60;;;;;;6246509;23;20016;-74
2023/01/20 06:05:24;;;;;;;8.80;3.25;;;5.90;82.30;;;;;;6246648;23;20054;-75
2023/01/20 06:07:50;;;;;;;9.40;3.70;;;6.00;82.80;;;;;;6246413;23;20004;-74
2023/01/20 06:10:16;;;;;;;10.43;4.38;;;6.00;82.60;;;;;;6246440;23;20000;-74
2023/01/20 06:12:42;;;;;;;15.25;4.05;;;6.10;82.80;;;;;;6246435;23;20015;-74
2023/01/20 06:15:09;;;;;;;8.60;4.30;;;6.10;82.80;;;;;;6246382;23;20000;-74
2023/01/20 06:17:35;;;;;;;10.65;5.05;;;6.10;83.10;;;;;;6246270;23;20015;-75
2023/01/20 06:20:01;;;;;;;11.15;4.50;;;6.10;82.60;;;;;;6246397;23;20000;-75
2023/01/20 06:22:26;;;;;;;8.45;4.30;;;6.10;82.80;;;;;;6246330;23;20004;-75
2023/01/20 06:24:52;;;;;;;11.77;5.30;;;6.10;82.50;;;;;;6219457;23;20058;-74
2023/01/20 06:27:19;;;;;;;12.85;5.00;;;6.10;82.60;;;;;;6246507;23;20008;-75
2023/01/20 06:29:45;;;;;;;12.20;4.78;;;6.00;82.60;;;;;;6219202;23;20005;-75
2023/01/20 06:32:10;;;;;;;9.15;4.63;;;6.10;82.80;;;;;;6246424;23;20005;-75
2023/01/20 06:34:36;;;;;;;10.20;5.47;;;6.20;83.10;;;;;;6246281;23;19996;-75
2023/01/20 06:37:02;;;;;;;13.23;4.78;;;6.20;82.90;;;;;;6246106;23;20004;-75
2023/01/20 06:39:28;;;;;;;12.40;5.22;;;6.20;82.70;;;;;;6246263;23;20024;-75
2023/01/20 06:42:00;;;;;;;11.82;5.47;;;6.10;82.50;;;;;;6246026;23;20248;-75
2023/01/20 06:44:26;;;;;;;11.18;4.93;;;6.20;82.80;;;;;;6246336;23;20004;-74
2023/01/20 06:46:52;;;;;;;12.95;4.93;;;6.20;82.70;;;;;;6246027;23;20084;-75
2023/01/20 06:49:18;;;;;;;10.63;4.38;;;6.30;82.70;;;;;;6245678;23;20004;-75
2023/01/20 06:51:43;;;;;;;11.98;5.38;;;6.30;82.20;;;;;;6245774;23;20007;-75
2023/01/20 06:54:09;;;;;;;13.80;5.45;;;6.30;82.30;;;;;;6245848;23;20058;-74
2023/01/20 06:56:35;;;;;;;11.18;5.55;;;6.30;82.50;;;;;;6245308;23;20002;-75
2023/01/20 06:59:00;;;;;;;13.15;5.10;;;6.30;82.60;;;;;;6245909;23;20334;-73
2023/01/20 07:01:28;;;;;;;13.65;5.15;;;6.30;82.50;;;;;;6245906;23;20076;-76
2023/01/20 07:03:55;;;;;;;10.95;5.95;;;6.30;82.60;;;;;;6245850;23;20071;-75
2023/01/20 07:06:30;;;;;;;12.32;6.22;;;6.30;82.20;;;;;;6245642;23;20429;-75
2023/01/20 07:08:56;;;;;;;17.13;7.32;;;6.30;82.40;;;;;;6245639;23;20005;-75
2023/01/20 07:11:22;;;;;;;16.50;7.45;;;6.40;82.20;;;;;;6245652;23;20079;-75
2023/01/20 07:13:48;;;;;;;29.95;12.38;;;6.40;82.30;;;;;;6245535;23;19996;-76
2023/01/20 07:16:13;;;;;;;17.50;9.95;;;6.40;82.20;;;;;;6245398;23;20075;-74
2023/01/20 07:18:40;;;;;;;16.05;7.15;;;6.40;81.90;;;;;;6245589;23;20008;-76
2023/01/20 07:21:05;;;;;;;14.68;6.88;;;6.50;82.10;;;;;;6218832;23;20027;-75
2023/01/20 07:23:32;;;;;;;12.20;6.00;;;6.50;82.00;;;;;;6245570;23;20434;-75
2023/01/20 07:26:04;;;;;;;17.42;6.20;;;6.50;81.90;;;;;;6246087;23;20005;-75
2023/01/20 07:28:30;;;;;;;18.77;6.13;;;6.50;82.10;;;;;;6245581;23;20071;-74
2023/01/20 07:31:06;;;;;;;21.10;6.07;;;6.50;82.30;;;;;;6245667;23;19996;-75
2023/01/20 07:33:32;;;;;;;14.23;6.35;;;6.60;82.30;;;;;;6245504;23;20011;-75
2023/01/20 07:35:58;;;;;;;15.45;6.50;;;6.60;82.20;;;;;;6245316;23;20002;-74
2023/01/20 07:38:24;;;;;;;15.18;5.97;;;6.60;82.30;;;;;;6245165;23;20091;-75
2023/01/20 07:40:49;;;;;;;9.80;5.70;;;6.70;82.50;;;;;;6245937;23;20067;-75
2023/01/20 07:43:15;;;;;;;14.00;6.47;;;6.80;82.50;;;;;;6245499;23;20007;-75
2023/01/20 07:45:41;;;;;;;12.30;5.97;;;6.80;82.30;;;;;;6245723;23;20000;-75
2023/01/20 07:48:07;;;;;;;13.60;6.00;;;6.80;82.10;;;;;;6245545;23;20323;-76
2023/01/20 07:50:34;;;;;;;14.23;5.93;;;6.80;82.50;;;;;;6245521;23;19996;-75
2023/01/20 07:53:00;;;;;;;12.55;5.32;;;6.80;82.10;;;;;;6245355;23;20000;-75
2023/01/20 07:55:26;;;;;;;10.80;5.93;;;6.80;81.90;;;;;;6245468;23;20007;-75
2023/01/20 07:57:51;;;;;;;13.90;5.40;;;6.90;82.10;;;;;;6245249;23;20020;-74
2023/01/20 08:00:18;;;;;;;10.00;5.32;;;6.90;81.90;;;;;;6245619;23;20000;-74
2023/01/20 08:02:44;;;;;;;13.00;5.38;;;6.90;81.80;;;;;;6245540;23;20007;-73
2023/01/20 08:05:10;;;;;;;12.13;5.70;;;6.90;81.90;;;;;;6245257;23;20330;-75
2023/01/20 08:07:35;;;;;;;10.52;5.05;;;7.00;81.90;;;;;;6245061;23;19996;-75
2023/01/20 08:10:01;;;;;;;9.85;5.25;;;7.00;81.70;;;;;;6245027;23;20027;-74
2023/01/20 08:12:28;;;;;;;11.18;5.55;;;7.00;81.70;;;;;;6244994;23;20066;-74
2023/01/20 08:14:54;;;;;;;9.35;5.57;;;7.00;81.60;;;;;;6244539;23;20000;-75
2023/01/20 08:17:20;;;;;;;12.52;5.75;;;7.00;81.60;;;;;;6244544;23;20012;-75
2023/01/20 08:19:45;;;;;;;11.23;5.88;;;7.00;81.70;;;;;;6244875;23;20000;-75
2023/01/20 08:22:11;;;;;;;12.35;5.40;;;7.00;81.60;;;;;;6245279;23;20057;-75
2023/01/20 08:24:37;;;;;;;12.73;5.97;;;7.00;81.50;;;;;;6245146;23;20024;-75
2023/01/20 08:27:02;;;;;;;9.02;5.60;;;7.00;81.20;;;;;;6245241;23;20035;-74
2023/01/20 08:29:30;;;;;;;13.70;5.25;;;7.00;81.10;;;;;;6247763;23;20003;-74
2023/01/20 08:32:00;;;;;;;11.40;5.70;;;7.00;81.50;;;;;;6245465;23;20079;-74
2023/01/20 08:34:27;;;;;;;19.30;9.35;;;7.00;81.60;;;;;;6245958;23;20011;-75
2023/01/20 08:36:56;;;;;;;14.20;5.70;;;7.10;81.50;;;;;;6246008;23;20008;-74
2023/01/20 08:39:22;;;;;;;10.38;5.88;;;7.20;81.10;;;;;;6218069;23;20020;-75
2023/01/20 08:41:49;;;;;;;10.82;5.32;;;7.20;80.90;;;;;;6217856;23;20300;-75
2023/01/20 08:44:16;;;;;;;9.68;5.25;;;7.30;80.90;;;;;;6218051;23;20015;-75
2023/01/20 08:46:42;;;;;;;9.43;5.57;;;7.30;80.90;;;;;;6217853;23;20040;-77
2023/01/20 08:49:12;;;;;;;13.60;6.03;;;7.30;81.20;;;;;;6245032;23;20342;-75
2023/01/20 08:51:39;;;;;;;12.00;6.28;;;7.40;81.10;;;;;;6245328;23;19996;-75
2023/01/20 08:54:05;;;;;;;15.85;5.63;;;7.50;80.90;;;;;;6244897;23;20000;-75
2023/01/20 08:56:32;;;;;;;14.48;5.45;;;7.50;80.60;;;;;;6245050;23;20031;-74
2023/01/20 08:58:59;;;;;;;24.52;6.53;;;7.60;80.50;;;;;;6244715;23;20138;-75
2023/01/20 09:01:28;;;;;;;15.68;5.70;;;7.60;80.30;;;;;;6244756;23;20000;-75
2023/01/20 09:03:55;;;;;;;17.15;5.32;;;7.60;80.30;;;;;;6244582;23;20004;-74
2023/01/20 09:06:21;;;;;;;35.13;6.65;;;7.70;80.00;;;;;;6244671;23;20458;-73
2023/01/20 09:08:48;;;;;;;11.68;4.65;;;7.70;79.80;;;;;;6217650;23;20036;-75
2023/01/20 09:11:17;;;;;;;17.08;5.90;;;7.60;80.10;;;;;;6244882;23;20028;-75
2023/01/20 09:13:43;;;;;;;15.63;4.93;;;7.60;79.60;;;;;;6245109;23;20012;-75
2023/01/20 09:16:13;;;;;;;10.20;4.97;;;7.60;79.50;;;;;;6244794;23;20307;-74
2023/01/20 09:18:39;;;;;;;12.70;4.68;;;7.60;79.40;;;;;;6244952;23;20078;-74
2023/01/20 09:21:05;;;;;;;9.95;4.95;;;7.60;79.30;;;;;;6244718;23;20465;-75
2023/01/20 09:23:33;;;;;;;14.60;5.18;;;7.60;79.10;;;;;;6244945;23;20023;-75
2023/01/20 09:26:00;;;;;;;10.38;5.30;;;7.60;79.10;;;;;;6218243;23;20512;-76
2023/01/20 09:28:26;;;;;;;13.05;4.82;;;7.60;79.00;;;;;;6245034;23;20046;-75
2023/01/20 09:31:05;;;;;;;9.82;5.57;;;7.70;79.30;;;;;;6244989;23;20042;-74
2023/01/20 09:33:34;;;;;;;12.55;5.43;;;7.70;78.60;;;;;;6245407;23;20004;-76
2023/01/20 09:36:01;;;;;;;15.32;5.50;;;7.80;79.00;;;;;;6218317;23;20370;-76
2023/01/20 09:44:10;;;;;;;10.20;4.75;;;7.80;78.40;;;;;;6244642;23;20015;-75
2023/01/20 09:47:18;;;;;;;13.07;4.60;;;7.80;78.30;;;;;;6244657;23;20322;-75
2023/01/20 09:53:07;;;;;;;8.27;3.83;;;7.70;77.90;;;;;;6244796;23;20050;-76
2023/01/20 09:56:03;;;;;;;9.10;4.05;;;7.70;78.10;;;;;;6244661;23;20008;-76
2023/01/20 09:59:10;;;;;;;6.90;3.25;;;7.70;77.90;;;;;;6244596;23;20054;-75
2023/01/20 10:01:43;;;;;;;9.80;3.38;;;7.70;77.70;;;;;;6122293;23;20029;-74
2023/01/20 10:04:44;;;;;;;7.22;4.30;;;7.70;77.30;;;;;;6122826;23;20081;-75
2023/01/20 10:07:22;;;;;;;9.98;4.25;;;7.70;77.40;;;;;;6178646;23;20088;-75
2023/01/20 10:10:19;;;;;;;11.07;3.50;;;7.80;77.60;;;;;;6244634;23;20000;-75
2023/01/20 10:12:57;;;;;;;12.30;3.45;;;7.80;77.00;;;;;;6244616;23;20457;-75
2023/01/20 10:15:31;;;;;;;6.40;2.80;;;7.80;77.00;;;;;;6245529;23;20422;-76
2023/01/20 10:18:08;;;;;;;11.15;3.67;;;7.80;77.00;;;;;;6246257;23;20318;-73
2023/01/20 10:20:49;;;;;;;7.30;3.28;;;7.80;77.10;;;;;;6219520;23;20468;-74
2023/01/20 10:23:28;;;;;;;9.82;3.70;;;7.80;76.70;;;;;;6246596;23;20353;-76
2023/01/20 10:26:20;;;;;;;8.50;3.15;;;7.70;76.50;;;;;;6246553;23;20012;-74
2023/01/20 10:28:54;;;;;;;11.90;3.10;;;7.70;76.50;;;;;;6245372;23;20058;-75
2023/01/20 10:31:26;;;;;;;6.88;3.10;;;7.80;76.60;;;;;;6246257;23;20438;-74
2023/01/20 10:33:55;;;;;;;11.13;3.40;;;7.80;76.40;;;;;;6246209;23;20023;-75
2023/01/20 10:36:28;;;;;;;8.82;3.33;;;7.80;76.80;;;;;;6245861;23;20492;-75
2023/01/20 10:39:08;;;;;;;8.52;3.55;;;7.80;76.70;;;;;;6245769;23;20359;-75
2023/01/20 10:41:41;;;;;;;9.77;3.95;;;7.80;77.00;;;;;;6245954;23;20035;-74
2023/01/20 10:44:11;;;;;;;7.15;3.40;;;7.70;76.60;;;;;;6246077;23;20377;-74
2023/01/20 10:46:58;;;;;;;12.05;4.00;;;7.70;76.80;;;;;;6245945;23;20028;-74
2023/01/20 10:49:44;;;;;;;13.85;4.03;;;7.70;77.20;;;;;;6218949;23;20008;-74
2023/01/20 10:52:21;;;;;;;9.48;3.08;;;7.80;77.00;;;;;;6246579;23;20031;-75
2023/01/20 10:55:29;;;;;;;9.70;3.83;;;7.80;76.70;;;;;;6246461;23;20334;-75
2023/01/20 10:58:21;;;;;;;13.52;4.32;;;7.70;77.10;;;;;;6203397;23;20020;-74
2023/01/20 11:00:48;;;;;;;7.82;3.58;;;7.80;76.90;;;;;;6213338;23;20008;-75
2023/01/20 11:03:18;;;;;;;10.23;3.65;;;7.80;76.90;;;;;;6246388;23;20008;-76
2023/01/20 11:05:47;;;;;;;12.48;4.00;;;7.80;76.40;;;;;;6246515;23;20004;-76
2023/01/20 11:08:22;;;;;;;9.55;3.75;;;7.80;76.50;;;;;;6246185;23;20075;-75
2023/01/20 11:10:55;;;;;;;9.45;3.42;;;7.80;76.50;;;;;;6246154;23;20031;-75
2023/01/20 11:13:21;;;;;;;9.00;3.83;;;7.80;76.30;;;;;;6246019;23;20023;-74
2023/01/20 11:15:50;;;;;;;8.07;3.80;;;7.70;76.40;;;;;;6246161;23;20006;-74
2023/01/20 11:18:16;;;;;;;9.13;3.03;;;7.80;76.30;;;;;;6245393;23;20015;-75
2023/01/20 11:20:54;;;;;;;7.95;3.40;;;7.80;76.40;;;;;;6245870;23;20000;-75
2023/01/20 11:23:40;;;;;;;9.60;2.95;;;7.80;76.80;;;;;;6245766;23;20066;-74
2023/01/20 11:26:20;;;;;;;9.07;3.22;;;7.90;76.30;;;;;;6245583;23;19996;-75
2023/01/20 11:28:55;;;;;;;10.52;2.97;;;7.90;76.10;;;;;;6218524;23;20476;-73
2023/01/20 11:31:52;;;;;;;11.38;3.42;;;7.90;75.90;;;;;;6245556;23;20321;-75
2023/01/20 11:34:27;;;;;;;11.27;3.17;;;7.90;74.30;;;;;;6244669;23;20008;-76
2023/01/20 11:37:04;;;;;;;8.57;3.13;;;7.90;75.20;;;;;;6246202;23;20047;-75
2023/01/20 11:39:36;;;;;;;8.50;3.00;;;7.90;74.30;;;;;;6246046;23;20016;-74
2023/01/20 11:42:13;;;;;;;11.48;3.40;;;7.90;74.20;;;;;;6245940;23;20020;-76
2023/01/20 11:44:46;;;;;;;19.75;4.57;;;7.90;75.30;;;;;;6245959;23;20004;-75
2023/01/20 11:47:23;;;;;;;26.40;6.55;;;8.00;75.20;;;;;;6245901;23;20007;-75
2023/01/20 11:50:07;;;;;;;17.08;4.00;;;8.00;75.10;;;;;;6245557;23;20000;-76
2023/01/20 11:52:37;;;;;;;13.65;4.03;;;8.10;75.70;;;;;;6245852;23;20350;-75
2023/01/20 11:55:18;;;;;;;10.80;3.70;;;8.10;75.00;;;;;;6245529;23;20114;-75
2023/01/20 11:57:54;;;;;;;21.88;5.10;;;8.20;75.00;;;;;;6245349;23;20087;-74
2023/01/20 12:00:23;;;;;;;28.25;6.85;;;8.20;73.80;;;;;;6245585;23;20422;-75
2023/01/20 12:03:09;;;;;;;27.73;4.93;;;8.10;75.10;;;;;;6246378;23;20004;-76
2023/01/20 12:06:02;;;;;;;16.73;4.03;;;8.20;75.30;;;;;;6219460;23;20099;-75
2023/01/20 12:08:41;;;;;;;13.27;4.88;;;8.20;74.90;;;;;;6245298;23;19996;-74
2023/01/20 12:11:08;;;;;;;12.05;4.20;;;8.20;73.80;;;;;;6218291;23;20004;-75
2023/01/20 12:14:26;;;;;;;10.05;4.20;;;8.20;73.50;;;;;;6245088;23;19996;-74
2023/01/20 12:17:18;;;;;;;9.20;3.75;;;8.10;75.10;;;;;;6213738;23;20442;-74
2023/01/20 12:20:05;;;;;;;11.02;4.28;;;8.20;73.70;;;;;;6172915;23;20460;-75
2023/01/20 12:23:13;;;;;;;15.43;4.80;;;8.20;74.00;;;;;;6245149;23;20071;-74
2023/01/20 12:25:48;;;;;;;9.80;4.53;;;8.20;75.70;;;;;;6148521;23;20074;-73
2023/01/20 12:28:17;;;;;;;9.93;4.72;;;8.10;74.60;;;;;;6244805;23;20000;-75
2023/01/20 12:31:03;;;;;;;10.52;4.90;;;8.10;76.00;;;;;;6218162;23;20092;-74
2023/01/20 12:33:33;;;;;;;11.55;4.63;;;8.10;74.70;;;;;;6244424;23;20015;-74
2023/01/20 12:36:23;;;;;;;11.95;5.63;;;8.10;76.20;;;;;;6245290;23;20000;-74
2023/01/20 12:39:15;;;;;;;13.07;5.75;;;8.10;76.00;;;;;;6244202;23;20023;-74
2023/01/20 12:41:53;;;;;;;11.73;6.05;;;8.10;75.60;;;;;;6245253;23;20004;-76
2023/01/20 12:44:22;;;;;;;13.63;5.63;;;8.00;75.50;;;;;;6245512;23;20019;-76
2023/01/20 12:47:05;;;;;;;14.13;6.50;;;8.10;75.60;;;;;;6245142;23;20079;-75
2023/01/20 12:49:31;;;;;;;15.80;7.10;;;8.10;75.80;;;;;;6245015;23;20000;-76
2023/01/20 12:52:19;;;;;;;15.95;6.70;;;8.10;76.30;;;;;;6244501;23;20051;-75
2023/01/20 12:54:54;;;;;;;13.30;6.68;;;8.00;77.20;;;;;;6244372;23;20012;-75
2023/01/20 12:57:22;;;;;;;16.08;6.97;;;8.00;77.00;;;;;;6244648;23;20086;-76
2023/01/20 13:00:17;;;;;;;11.77;6.88;;;8.00;78.00;;;;;;6244776;23;20018;-72
2023/01/20 13:03:05;;;;;;;;;;;8.00;77.90;;;;;;6245758;23;20004;-76
2023/01/20 13:05:54;;;;;;;9.93;5.45;;;8.00;78.60;;;;;;6224934;23;19945;-75
2023/01/20 13:08:28;;;;;;;10.32;5.75;;;8.00;78.10;;;;;;6245066;23;20012;-75
2023/01/20 13:11:27;;;;;;;12.65;5.32;;;8.00;78.20;;;;;;6244936;23;20004;-74
2023/01/20 13:14:15;;;;;;;12.18;5.13;;;8.00;78.10;;;;;;6244368;23;20353;-76
2023/01/20 13:16:51;;;;;;;10.65;5.50;;;8.00;78.30;;;;;;6244857;23;20035;-76
2023/01/20 13:19:36;;;;;;;10.60;5.22;;;8.00;78.60;;;;;;6244916;23;20019;-75
2023/01/20 13:22:10;;;;;;;11.90;5.45;;;8.00;78.30;;;;;;6244949;23;20027;-75
2023/01/20 13:24:35;;;;;;;;;;;8.00;78.10;;;;;;6245242;23;20402;-75
2023/01/20 13:27:01;;;;;;;10.20;4.97;;;7.90;78.30;;;;;;6244737;23;19899;-74
2023/01/20 13:29:50;;;;;;;11.50;5.25;;;7.90;78.10;;;;;;6244802;23;20070;-75
2023/01/20 13:32:37;;;;;;;11.45;4.88;;;7.90;78.30;;;;;;6199203;23;20441;-74
2023/01/20 13:35:24;;;;;;;11.38;5.45;;;8.00;78.40;;;;;;6245012;23;20004;-75
2023/01/20 13:37:59;;;;;;;12.55;5.30;;;7.90;78.50;;;;;;6244712;23;20121;-75
2023/01/20 13:40:47;;;;;;;9.95;4.63;;;8.00;78.00;;;;;;6243337;23;20002;-75
2023/01/20 13:43:25;;;;;;;13.27;4.68;;;8.00;78.20;;;;;;6244014;23;20007;-75
2023/01/20 13:46:05;;;;;;;11.68;5.25;;;8.00;78.50;;;;;;6243954;23;20000;-76
2023/01/20 13:48:34;;;;;;;10.52;5.35;;;8.00;78.30;;;;;;6244082;23;20027;-76
2023/01/20 13:51:15;;;;;;;8.98;5.05;;;8.00;77.60;;;;;;6244972;23;20007;-75
2023/01/20 13:53:44;;;;;;;9.40;5.32;;;8.00;77.50;;;;;;6218176;23;20457;-74
2023/01/20 13:56:24;;;;;;;9.63;5.20;;;8.00;77.50;;;;;;6244465;23;20000;-75
2023/01/20 13:58:49;;;;;;;11.75;5.20;;;8.00;77.60;;;;;;6244830;23;20008;-75
2023/01/20 14:01:15;;;;;;;16.60;5.20;;;8.00;77.40;;;;;;6245047;23;20097;-75
2023/01/20 14:03:41;;;;;;;12.10;5.55;;;8.00;77.40;;;;;;6245042;23;20011;-75
2023/01/20 14:06:13;;;;;;;12.18;4.93;;;8.00;77.10;;;;;;6244907;23;20003;-75
2023/01/20 14:08:47;;;;;;;10.23;4.85;;;8.00;77.40;;;;;;6244414;23;20023;-74
2023/01/20 14:11:21;;;;;;;13.55;5.43;;;8.00;77.40;;;;;;6245154;23;20030;-74
2023/01/20 14:13:55;;;;;;;11.80;4.93;;;8.00;77.20;;;;;;6245336;23;20310;-75
2023/01/20 14:16:36;;;;;;;16.58;6.13;;;8.00;77.00;;;;;;6244838;23;20000;-75
2023/01/20 14:19:33;;;;;;;14.48;6.05;;;8.00;77.00;;;;;;6244625;23;20012;-75
2023/01/20 14:22:26;;;;;;;17.02;5.88;;;8.00;78.00;;;;;;6244689;23;20418;-75
2023/01/20 14:24:57;;;;;;;12.32;5.65;;;8.10;78.00;;;;;;6245144;23;20043;-76
2023/01/20 14:27:28;;;;;;;11.63;5.43;;;8.10;77.10;;;;;;6244754;23;20047;-74
2023/01/20 14:30:17;;;;;;;13.45;5.90;;;8.10;77.90;;;;;;6244544;23;20337;-75
2023/01/20 14:32:43;;;;;;;12.60;5.78;;;8.00;77.20;;;;;;6228711;23;20004;-76
2023/01/20 14:35:16;;;;;;;14.50;4.75;;;8.00;76.80;;;;;;6244452;23;20000;-76
2023/01/20 14:37:43;;;;;;;10.50;4.82;;;8.00;77.00;;;;;;6187636;23;1324900;-75